sensor_id;sensor_type;location;lat;lon;timestamp;temperature;humidity
10123;DHT22;5101;49.038;8.710;2024-02-21T00:01:24;7.60;99.90
10123;DHT22;5101;49.038;8.710;2024-02-21T00:03:50;7.60;99.90
10123;DHT22;5101;49.038;8.710;2024-02-21T00:06:15;7.60;99.90
10123;DHT22;5101;49.038;8.710;2024-02-21T00:08:41;7.50;99.90
10123;DHT22;5101;49.038;8.710;2024-02-21T00:11:06;7.50;99.90
10123;DHT22;5101;49.038;8.710;2024-02-21T00:13:32;7.50;99.90
10123;DHT22;5101;49.038;8.710;2024-02-21T00:15:57;7.60;99.90
10123;DHT22;5101;49.038;8.710;2024-02-21T00:18:23;7.60;99.90
10123;DHT22;5101;49.038;8.710;2024-02-21T00:20:48;7.60;99.90
10123;DHT22;5101;49.038;8.710;2024-02-21T00:23:14;7.60;99.90
10123;DHT22;5101;49.038;8.710;2024-02-21T00:25:39;7.60;99.90
10123;DHT22;5101;49.038;8.710;2024-02-21T00:28:05;7.70;99.90
10123;DHT22;5101;49.038;8.710;2024-02-21T00:30:31;7.70;99.90
10123;DHT22;5101;49.038;8.710;2024-02-21T00:32:57;7.70;99.90
10123;DHT22;5101;49.038;8.710;2024-02-21T00:35:22;7.80;99.90
10123;DHT22;5101;49.038;8.710;2024-02-21T00:37:48;7.70;99.90
10123;DHT22;5101;49.038;8.710;2024-02-21T00:40:13;7.70;99.90
10123;DHT22;5101;49.038;8.710;2024-02-21T00:42:45;7.80;99.90
10123;DHT22;5101;49.038;8.710;2024-02-21T00:45:11;7.80;99.90
10123;DHT22;5101;49.038;8.710;2024-02-21T00:47:36;7.80;99.90
10123;DHT22;5101;49.038;8.710;2024-02-21T00:50:02;7.80;99.90
10123;DHT22;5101;49.038;8.710;2024-02-21T00:52:27;7.80;99.90
10123;DHT22;5101;49.038;8.710;2024-02-21T00:54:53;7.80;99.90
10123;DHT22;5101;49.038;8.710;2024-02-21T00:57:18;7.90;99.90
10123;DHT22;5101;49.038;8.710;2024-02-21T00:59:44;7.90;99.90
10123;DHT22;5101;49.038;8.710;2024-02-21T01:02:09;7.90;99.90
10123;DHT22;5101;49.038;8.710;2024-02-21T01:04:35;7.90;99.90
10123;DHT22;5101;49.038;8.710;2024-02-21T01:07:00;7.90;99.90
10123;DHT22;5101;49.038;8.710;2024-02-21T01:09:26;7.90;99.90
10123;DHT22;5101;49.038;8.710;2024-02-21T01:11:51;7.90;99.90
10123;DHT22;5101;49.038;8.710;2024-02-21T01:14:17;7.90;99.90
10123;DHT22;5101;49.038;8.710;2024-02-21T01:16:42;8.00;99.90
10123;DHT22;5101;49.038;8.710;2024-02-21T01:19:08;8.00;99.90
10123;DHT22;5101;49.038;8.710;2024-02-21T01:21:33;8.00;99.90
10123;DHT22;5101;49.038;8.710;2024-02-21T01:23:59;8.00;99.90
10123;DHT22;5101;49.038;8.710;2024-02-21T01:26:25;8.00;99.90
10123;DHT22;5101;49.038;8.710;2024-02-21T01:28:50;8.10;99.90
10123;DHT22;5101;49.038;8.710;2024-02-21T01:31:16;8.10;99.90
10123;DHT22;5101;49.038;8.710;2024-02-21T01:33:41;8.10;99.90
10123;DHT22;5101;49.038;8.710;2024-02-21T01:36:08;8.10;99.90
10123;DHT22;5101;49.038;8.710;2024-02-21T01:38:34;8.10;99.90
10123;DHT22;5101;49.038;8.710;2024-02-21T01:40:59;8.10;99.90
10123;DHT22;5101;49.038;8.710;2024-02-21T01:43:25;8.20;99.90
10123;DHT22;5101;49.038;8.710;2024-02-21T01:45:53;8.20;99.90
10123;DHT22;5101;49.038;8.710;2024-02-21T01:48:24;8.20;99.90
10123;DHT22;5101;49.038;8.710;2024-02-21T01:50:50;8.20;99.90
10123;DHT22;5101;49.038;8.710;2024-02-21T01:53:22;8.20;99.90
10123;DHT22;5101;49.038;8.710;2024-02-21T01:55:48;8.30;99.90
10123;DHT22;5101;49.038;8.710;2024-02-21T01:58:17;8.30;99.90
10123;DHT22;5101;49.038;8.710;2024-02-21T02:00:45;8.30;99.90
10123;DHT22;5101;49.038;8.710;2024-02-21T02:03:11;8.30;99.90
10123;DHT22;5101;49.038;8.710;2024-02-21T02:05:47;8.40;99.90
10123;DHT22;5101;49.038;8.710;2024-02-21T02:08:17;8.30;99.90
10123;DHT22;5101;49.038;8.710;2024-02-21T02:10:43;8.30;99.90
10123;DHT22;5101;49.038;8.710;2024-02-21T02:13:09;8.30;99.90
10123;DHT22;5101;49.038;8.710;2024-02-21T02:15:45;8.30;99.90
10123;DHT22;5101;49.038;8.710;2024-02-21T02:18:11;8.40;99.90
10123;DHT22;5101;49.038;8.710;2024-02-21T02:20:37;8.40;99.90
10123;DHT22;5101;49.038;8.710;2024-02-21T02:23:29;8.40;99.90
10123;DHT22;5101;49.038;8.710;2024-02-21T02:25:55;8.40;99.90
10123;DHT22;5101;49.038;8.710;2024-02-21T02:28:21;8.40;99.90
10123;DHT22;5101;49.038;8.710;2024-02-21T02:30:47;8.40;99.90
10123;DHT22;5101;49.038;8.710;2024-02-21T02:33:13;8.40;99.90
10123;DHT22;5101;49.038;8.710;2024-02-21T02:35:39;8.40;99.90
10123;DHT22;5101;49.038;8.710;2024-02-21T02:38:05;8.40;99.90
10123;DHT22;5101;49.038;8.710;2024-02-21T02:40:32;8.30;99.90
10123;DHT22;5101;49.038;8.710;2024-02-21T02:42:58;8.30;99.90
10123;DHT22;5101;49.038;8.710;2024-02-21T02:45:24;8.30;99.90
10123;DHT22;5101;49.038;8.710;2024-02-21T02:47:52;8.30;99.90
10123;DHT22;5101;49.038;8.710;2024-02-21T02:50:17;8.30;99.90
10123;DHT22;5101;49.038;8.710;2024-02-21T02:52:43;8.30;99.90
10123;DHT22;5101;49.038;8.710;2024-02-21T02:55:08;8.30;99.90
10123;DHT22;5101;49.038;8.710;2024-02-21T02:57:34;8.40;99.90
10123;DHT22;5101;49.038;8.710;2024-02-21T02:59:59;8.30;99.90
10123;DHT22;5101;49.038;8.710;2024-02-21T03:02:25;8.30;99.90
10123;DHT22;5101;49.038;8.710;2024-02-21T03:04:50;8.30;99.90
10123;DHT22;5101;49.038;8.710;2024-02-21T03:07:16;8.30;99.90
10123;DHT22;5101;49.038;8.710;2024-02-21T03:09:42;8.30;99.90
10123;DHT22;5101;49.038;8.710;2024-02-21T03:12:10;8.30;99.90
10123;DHT22;5101;49.038;8.710;2024-02-21T03:14:36;8.30;99.90
10123;DHT22;5101;49.038;8.710;2024-02-21T03:17:02;8.30;99.90
10123;DHT22;5101;49.038;8.710;2024-02-21T03:19:28;8.30;99.90
10123;DHT22;5101;49.038;8.710;2024-02-21T03:21:53;8.30;99.90
10123;DHT22;5101;49.038;8.710;2024-02-21T03:24:19;8.30;99.90
10123;DHT22;5101;49.038;8.710;2024-02-21T03:26:45;8.30;99.90
10123;DHT22;5101;49.038;8.710;2024-02-21T03:29:13;8.30;99.90
10123;DHT22;5101;49.038;8.710;2024-02-21T03:31:39;8.30;99.90
10123;DHT22;5101;49.038;8.710;2024-02-21T03:34:05;8.30;99.90
10123;DHT22;5101;49.038;8.710;2024-02-21T03:36:30;8.30;99.90
10123;DHT22;5101;49.038;8.710;2024-02-21T03:38:56;8.20;99.90
10123;DHT22;5101;49.038;8.710;2024-02-21T03:41:21;8.30;99.90
10123;DHT22;5101;49.038;8.710;2024-02-21T03:43:47;8.20;99.90
10123;DHT22;5101;49.038;8.710;2024-02-21T03:46:13;8.20;99.90
10123;DHT22;5101;49.038;8.710;2024-02-21T03:48:38;8.10;99.90
10123;DHT22;5101;49.038;8.710;2024-02-21T03:51:04;8.10;99.90
10123;DHT22;5101;49.038;8.710;2024-02-21T03:53:30;8.10;99.90
10123;DHT22;5101;49.038;8.710;2024-02-21T03:55:55;8.10;99.90
10123;DHT22;5101;49.038;8.710;2024-02-21T03:58:21;8.10;99.90
10123;DHT22;5101;49.038;8.710;2024-02-21T04:00:47;8.20;99.90
10123;DHT22;5101;49.038;8.710;2024-02-21T04:03:13;8.20;99.90
10123;DHT22;5101;49.038;8.710;2024-02-21T04:05:38;8.10;99.90
10123;DHT22;5101;49.038;8.710;2024-02-21T04:08:05;8.00;99.90
10123;DHT22;5101;49.038;8.710;2024-02-21T04:10:31;8.00;99.90
10123;DHT22;5101;49.038;8.710;2024-02-21T04:12:56;8.00;99.90
10123;DHT22;5101;49.038;8.710;2024-02-21T04:15:22;8.10;99.90
10123;DHT22;5101;49.038;8.710;2024-02-21T04:17:47;8.10;99.90
10123;DHT22;5101;49.038;8.710;2024-02-21T04:20:15;8.10;99.90
10123;DHT22;5101;49.038;8.710;2024-02-21T04:22:43;8.10;99.90
10123;DHT22;5101;49.038;8.710;2024-02-21T04:25:08;8.10;99.90
10123;DHT22;5101;49.038;8.710;2024-02-21T04:27:34;8.00;99.90
10123;DHT22;5101;49.038;8.710;2024-02-21T04:29:59;8.00;99.90
10123;DHT22;5101;49.038;8.710;2024-02-21T04:32:25;8.00;99.90
10123;DHT22;5101;49.038;8.710;2024-02-21T04:34:52;8.00;99.90
10123;DHT22;5101;49.038;8.710;2024-02-21T04:37:18;7.90;99.90
10123;DHT22;5101;49.038;8.710;2024-02-21T04:39:44;7.90;99.90
10123;DHT22;5101;49.038;8.710;2024-02-21T04:42:09;7.90;99.90
10123;DHT22;5101;49.038;8.710;2024-02-21T04:44:35;7.90;99.90
10123;DHT22;5101;49.038;8.710;2024-02-21T04:47:00;7.90;99.90
10123;DHT22;5101;49.038;8.710;2024-02-21T04:49:26;7.80;99.90
10123;DHT22;5101;49.038;8.710;2024-02-21T04:51:51;7.80;99.90
10123;DHT22;5101;49.038;8.710;2024-02-21T04:54:17;7.80;99.90
10123;DHT22;5101;49.038;8.710;2024-02-21T04:56:42;7.80;99.90
10123;DHT22;5101;49.038;8.710;2024-02-21T04:59:08;7.70;99.90
10123;DHT22;5101;49.038;8.710;2024-02-21T05:01:33;7.70;99.90
10123;DHT22;5101;49.038;8.710;2024-02-21T05:03:59;7.70;99.90
10123;DHT22;5101;49.038;8.710;2024-02-21T05:06:24;7.70;99.90
10123;DHT22;5101;49.038;8.710;2024-02-21T05:08:50;7.60;99.90
10123;DHT22;5101;49.038;8.710;2024-02-21T05:11:15;7.60;99.90
10123;DHT22;5101;49.038;8.710;2024-02-21T05:13:41;7.60;99.90
10123;DHT22;5101;49.038;8.710;2024-02-21T05:16:07;7.50;99.90
10123;DHT22;5101;49.038;8.710;2024-02-21T05:18:33;7.40;99.90
10123;DHT22;5101;49.038;8.710;2024-02-21T05:20:59;7.40;99.90
10123;DHT22;5101;49.038;8.710;2024-02-21T05:23:24;7.40;99.90
10123;DHT22;5101;49.038;8.710;2024-02-21T05:25:50;7.40;99.90
10123;DHT22;5101;49.038;8.710;2024-02-21T05:28:16;7.40;99.90
10123;DHT22;5101;49.038;8.710;2024-02-21T05:30:42;7.30;99.90
10123;DHT22;5101;49.038;8.710;2024-02-21T05:33:08;7.30;99.90
10123;DHT22;5101;49.038;8.710;2024-02-21T05:35:35;7.30;99.90
10123;DHT22;5101;49.038;8.710;2024-02-21T05:38:00;7.20;99.90
10123;DHT22;5101;49.038;8.710;2024-02-21T05:40:26;7.20;99.90
10123;DHT22;5101;49.038;8.710;2024-02-21T05:42:52;7.20;99.90
10123;DHT22;5101;49.038;8.710;2024-02-21T05:45:18;7.10;99.90
10123;DHT22;5101;49.038;8.710;2024-02-21T05:47:44;7.10;99.90
10123;DHT22;5101;49.038;8.710;2024-02-21T05:50:10;7.20;99.90
10123;DHT22;5101;49.038;8.710;2024-02-21T05:52:35;7.00;99.90
10123;DHT22;5101;49.038;8.710;2024-02-21T05:55:01;7.10;99.90
10123;DHT22;5101;49.038;8.710;2024-02-21T05:57:26;7.00;99.90
10123;DHT22;5101;49.038;8.710;2024-02-21T05:59:52;7.00;99.90
10123;DHT22;5101;49.038;8.710;2024-02-21T06:02:17;7.00;99.90
10123;DHT22;5101;49.038;8.710;2024-02-21T06:04:43;7.00;99.90
10123;DHT22;5101;49.038;8.710;2024-02-21T06:07:09;6.90;99.90
10123;DHT22;5101;49.038;8.710;2024-02-21T06:09:35;6.90;99.90
10123;DHT22;5101;49.038;8.710;2024-02-21T06:12:01;6.80;99.90
10123;DHT22;5101;49.038;8.710;2024-02-21T06:14:26;6.80;99.90
10123;DHT22;5101;49.038;8.710;2024-02-21T06:16:52;6.70;99.90
10123;DHT22;5101;49.038;8.710;2024-02-21T06:19:17;6.50;99.90
10123;DHT22;5101;49.038;8.710;2024-02-21T06:21:42;6.50;99.90
10123;DHT22;5101;49.038;8.710;2024-02-21T06:24:08;6.40;99.90
10123;DHT22;5101;49.038;8.710;2024-02-21T06:26:34;6.50;99.90
10123;DHT22;5101;49.038;8.710;2024-02-21T06:28:59;6.50;99.90
10123;DHT22;5101;49.038;8.710;2024-02-21T06:31:25;6.50;99.90
10123;DHT22;5101;49.038;8.710;2024-02-21T06:33:51;6.50;99.90
10123;DHT22;5101;49.038;8.710;2024-02-21T06:36:16;6.50;99.90
10123;DHT22;5101;49.038;8.710;2024-02-21T06:38:42;6.50;99.90
10123;DHT22;5101;49.038;8.710;2024-02-21T06:41:17;6.60;99.90
10123;DHT22;5101;49.038;8.710;2024-02-21T06:43:44;6.50;99.90
10123;DHT22;5101;49.038;8.710;2024-02-21T06:46:11;6.40;99.90
10123;DHT22;5101;49.038;8.710;2024-02-21T06:48:36;6.50;99.90
10123;DHT22;5101;49.038;8.710;2024-02-21T06:51:02;6.50;99.90
10123;DHT22;5101;49.038;8.710;2024-02-21T06:53:28;6.50;99.90
10123;DHT22;5101;49.038;8.710;2024-02-21T06:55:54;6.50;99.90
10123;DHT22;5101;49.038;8.710;2024-02-21T06:58:19;6.50;99.90
10123;DHT22;5101;49.038;8.710;2024-02-21T07:00:45;6.60;99.90
10123;DHT22;5101;49.038;8.710;2024-02-21T07:03:10;6.60;99.90
10123;DHT22;5101;49.038;8.710;2024-02-21T07:05:36;6.60;99.90
10123;DHT22;5101;49.038;8.710;2024-02-21T07:08:01;6.60;99.90
10123;DHT22;5101;49.038;8.710;2024-02-21T07:10:28;6.60;99.90
10123;DHT22;5101;49.038;8.710;2024-02-21T07:12:54;6.60;99.90
10123;DHT22;5101;49.038;8.710;2024-02-21T07:15:20;6.70;99.90
10123;DHT22;5101;49.038;8.710;2024-02-21T07:17:46;6.70;99.90
10123;DHT22;5101;49.038;8.710;2024-02-21T07:20:11;6.70;99.90
10123;DHT22;5101;49.038;8.710;2024-02-21T07:22:37;6.80;99.90
10123;DHT22;5101;49.038;8.710;2024-02-21T07:25:02;6.80;99.90
10123;DHT22;5101;49.038;8.710;2024-02-21T07:27:28;6.90;99.90
10123;DHT22;5101;49.038;8.710;2024-02-21T07:29:56;6.90;99.90
10123;DHT22;5101;49.038;8.710;2024-02-21T07:32:22;7.00;99.90
10123;DHT22;5101;49.038;8.710;2024-02-21T07:34:47;7.20;99.90
10123;DHT22;5101;49.038;8.710;2024-02-21T07:37:13;7.10;99.90
10123;DHT22;5101;49.038;8.710;2024-02-21T07:39:38;7.20;99.90
10123;DHT22;5101;49.038;8.710;2024-02-21T07:42:04;7.20;99.90
10123;DHT22;5101;49.038;8.710;2024-02-21T07:44:30;7.30;99.90
10123;DHT22;5101;49.038;8.710;2024-02-21T07:46:57;7.40;99.90
10123;DHT22;5101;49.038;8.710;2024-02-21T07:49:22;7.40;99.90
10123;DHT22;5101;49.038;8.710;2024-02-21T07:51:48;7.60;99.90
10123;DHT22;5101;49.038;8.710;2024-02-21T07:54:13;7.50;99.90
10123;DHT22;5101;49.038;8.710;2024-02-21T07:56:39;7.70;99.90
10123;DHT22;5101;49.038;8.710;2024-02-21T07:59:05;7.70;99.90
10123;DHT22;5101;49.038;8.710;2024-02-21T08:01:30;7.80;99.90
10123;DHT22;5101;49.038;8.710;2024-02-21T08:03:56;7.80;99.90
10123;DHT22;5101;49.038;8.710;2024-02-21T08:06:21;7.90;99.90
10123;DHT22;5101;49.038;8.710;2024-02-21T08:08:47;8.00;99.90
10123;DHT22;5101;49.038;8.710;2024-02-21T08:11:13;8.10;99.90
10123;DHT22;5101;49.038;8.710;2024-02-21T08:13:38;8.20;99.90
10123;DHT22;5101;49.038;8.710;2024-02-21T08:16:04;8.30;99.90
10123;DHT22;5101;49.038;8.710;2024-02-21T08:18:29;8.40;99.90
10123;DHT22;5101;49.038;8.710;2024-02-21T08:20:55;8.50;99.90
10123;DHT22;5101;49.038;8.710;2024-02-21T08:23:23;8.60;99.90
10123;DHT22;5101;49.038;8.710;2024-02-21T08:25:49;8.70;99.90
10123;DHT22;5101;49.038;8.710;2024-02-21T08:28:15;8.80;99.90
10123;DHT22;5101;49.038;8.710;2024-02-21T08:30:40;8.90;99.90
10123;DHT22;5101;49.038;8.710;2024-02-21T08:33:09;9.00;99.90
10123;DHT22;5101;49.038;8.710;2024-02-21T08:35:35;9.10;99.90
10123;DHT22;5101;49.038;8.710;2024-02-21T08:38:00;9.20;99.90
10123;DHT22;5101;49.038;8.710;2024-02-21T08:40:26;9.20;99.90
10123;DHT22;5101;49.038;8.710;2024-02-21T08:42:51;9.30;99.90
10123;DHT22;5101;49.038;8.710;2024-02-21T08:45:17;9.40;99.90
10123;DHT22;5101;49.038;8.710;2024-02-21T08:47:42;9.40;99.90
10123;DHT22;5101;49.038;8.710;2024-02-21T08:50:08;9.50;99.90
10123;DHT22;5101;49.038;8.710;2024-02-21T08:52:37;9.60;99.90
10123;DHT22;5101;49.038;8.710;2024-02-21T08:55:03;9.60;99.90
10123;DHT22;5101;49.038;8.710;2024-02-21T08:57:28;9.80;99.90
10123;DHT22;5101;49.038;8.710;2024-02-21T08:59:54;9.90;99.90
10123;DHT22;5101;49.038;8.710;2024-02-21T09:02:19;9.90;99.90
10123;DHT22;5101;49.038;8.710;2024-02-21T09:04:45;10.00;99.90
10123;DHT22;5101;49.038;8.710;2024-02-21T09:07:11;10.10;99.90
10123;DHT22;5101;49.038;8.710;2024-02-21T09:09:37;10.20;99.90
10123;DHT22;5101;49.038;8.710;2024-02-21T09:12:05;10.30;99.90
10123;DHT22;5101;49.038;8.710;2024-02-21T09:14:32;10.40;99.90
10123;DHT22;5101;49.038;8.710;2024-02-21T09:16:57;10.50;99.90
10123;DHT22;5101;49.038;8.710;2024-02-21T09:19:23;10.60;99.90
10123;DHT22;5101;49.038;8.710;2024-02-21T09:21:48;10.70;99.90
10123;DHT22;5101;49.038;8.710;2024-02-21T09:24:14;10.80;99.90
10123;DHT22;5101;49.038;8.710;2024-02-21T09:26:40;11.00;99.90
10123;DHT22;5101;49.038;8.710;2024-02-21T09:29:05;11.10;99.50
10123;DHT22;5101;49.038;8.710;2024-02-21T09:31:31;11.30;99.10
10123;DHT22;5101;49.038;8.710;2024-02-21T09:33:56;11.50;98.70
10123;DHT22;5101;49.038;8.710;2024-02-21T09:36:22;11.70;98.00
10123;DHT22;5101;49.038;8.710;2024-02-21T09:38:47;11.90;97.10
10123;DHT22;5101;49.038;8.710;2024-02-21T09:41:16;12.20;96.40
10123;DHT22;5101;49.038;8.710;2024-02-21T09:43:43;12.50;95.70
10123;DHT22;5101;49.038;8.710;2024-02-21T09:46:16;12.70;94.40
10123;DHT22;5101;49.038;8.710;2024-02-21T09:51:40;12.80;92.70
10123;DHT22;5101;49.038;8.710;2024-02-21T09:54:07;12.80;92.60
10123;DHT22;5101;49.038;8.710;2024-02-21T09:56:33;13.00;92.20
10123;DHT22;5101;49.038;8.710;2024-02-21T09:58:58;13.30;91.90
10123;DHT22;5101;49.038;8.710;2024-02-21T10:01:24;13.60;91.40
10123;DHT22;5101;49.038;8.710;2024-02-21T10:03:50;13.80;90.60
10123;DHT22;5101;49.038;8.710;2024-02-21T10:06:16;14.00;89.40
10123;DHT22;5101;49.038;8.710;2024-02-21T10:08:41;14.20;88.20
10123;DHT22;5101;49.038;8.710;2024-02-21T10:11:07;14.40;87.40
10123;DHT22;5101;49.038;8.710;2024-02-21T10:13:34;14.50;86.80
10123;DHT22;5101;49.038;8.710;2024-02-21T10:16:07;14.60;86.30
10123;DHT22;5101;49.038;8.710;2024-02-21T10:18:33;14.70;85.70
10123;DHT22;5101;49.038;8.710;2024-02-21T10:21:08;14.50;85.40
10123;DHT22;5101;49.038;8.710;2024-02-21T10:23:52;14.50;84.40
10123;DHT22;5101;49.038;8.710;2024-02-21T10:26:19;14.60;83.90
10123;DHT22;5101;49.038;8.710;2024-02-21T10:28:44;14.60;83.90
10123;DHT22;5101;49.038;8.710;2024-02-21T10:31:22;14.70;84.00
10123;DHT22;5101;49.038;8.710;2024-02-21T10:33:58;14.90;83.60
10123;DHT22;5101;49.038;8.710;2024-02-21T10:36:24;15.00;82.50
10123;DHT22;5101;49.038;8.710;2024-02-21T10:38:50;15.20;81.70
10123;DHT22;5101;49.038;8.710;2024-02-21T10:41:19;15.30;80.10
10123;DHT22;5101;49.038;8.710;2024-02-21T10:43:52;15.40;79.50
10123;DHT22;5101;49.038;8.710;2024-02-21T10:46:22;15.50;79.30
10123;DHT22;5101;49.038;8.710;2024-02-21T10:48:58;15.60;79.30
10123;DHT22;5101;49.038;8.710;2024-02-21T10:51:30;15.60;78.70
10123;DHT22;5101;49.038;8.710;2024-02-21T10:56:38;15.50;77.50
10123;DHT22;5101;49.038;8.710;2024-02-21T10:59:05;15.50;77.80
10123;DHT22;5101;49.038;8.710;2024-02-21T11:01:32;15.50;77.80
10123;DHT22;5101;49.038;8.710;2024-02-21T11:04:01;15.60;77.70
10123;DHT22;5101;49.038;8.710;2024-02-21T11:06:28;15.60;77.70
10123;DHT22;5101;49.038;8.710;2024-02-21T11:09:01;15.60;77.30
10123;DHT22;5101;49.038;8.710;2024-02-21T11:11:27;15.60;77.00
10123;DHT22;5101;49.038;8.710;2024-02-21T11:13:53;15.60;77.00
10123;DHT22;5101;49.038;8.710;2024-02-21T11:16:22;15.60;76.80
10123;DHT22;5101;49.038;8.710;2024-02-21T11:18:48;15.60;77.00
10123;DHT22;5101;49.038;8.710;2024-02-21T11:21:14;15.60;76.90
10123;DHT22;5101;49.038;8.710;2024-02-21T11:23:39;15.70;76.50
10123;DHT22;5101;49.038;8.710;2024-02-21T11:26:08;15.70;76.30
10123;DHT22;5101;49.038;8.710;2024-02-21T11:28:34;15.70;76.40
10123;DHT22;5101;49.038;8.710;2024-02-21T11:31:19;15.70;75.90
10123;DHT22;5101;49.038;8.710;2024-02-21T11:33:47;15.70;75.30
10123;DHT22;5101;49.038;8.710;2024-02-21T11:36:26;15.70;75.10
10123;DHT22;5101;49.038;8.710;2024-02-21T11:38:52;15.70;75.20
10123;DHT22;5101;49.038;8.710;2024-02-21T11:41:21;15.60;75.00
10123;DHT22;5101;49.038;8.710;2024-02-21T11:43:49;15.60;75.50
10123;DHT22;5101;49.038;8.710;2024-02-21T11:46:16;15.60;75.60
10123;DHT22;5101;49.038;8.710;2024-02-21T11:48:42;15.60;75.10
10123;DHT22;5101;49.038;8.710;2024-02-21T11:51:21;15.50;75.40
10123;DHT22;5101;49.038;8.710;2024-02-21T11:53:48;15.40;75.10
10123;DHT22;5101;49.038;8.710;2024-02-21T11:56:14;15.40;76.10
10123;DHT22;5101;49.038;8.710;2024-02-21T11:58:39;15.50;75.80
10123;DHT22;5101;49.038;8.710;2024-02-21T12:01:05;15.40;76.00
10123;DHT22;5101;49.038;8.710;2024-02-21T12:03:32;15.40;75.20
10123;DHT22;5101;49.038;8.710;2024-02-21T12:05:59;15.40;74.90
10123;DHT22;5101;49.038;8.710;2024-02-21T12:08:25;15.30;74.90
10123;DHT22;5101;49.038;8.710;2024-02-21T12:10:50;15.20;74.90
10123;DHT22;5101;49.038;8.710;2024-02-21T12:13:16;15.10;75.10
10123;DHT22;5101;49.038;8.710;2024-02-21T12:15:47;15.00;75.10
10123;DHT22;5101;49.038;8.710;2024-02-21T12:18:14;15.00;74.60
10123;DHT22;5101;49.038;8.710;2024-02-21T12:20:40;15.00;74.50
10123;DHT22;5101;49.038;8.710;2024-02-21T12:23:10;14.90;74.50
10123;DHT22;5101;49.038;8.710;2024-02-21T12:25:36;14.90;74.50
10123;DHT22;5101;49.038;8.710;2024-02-21T12:28:01;14.90;74.40
10123;DHT22;5101;49.038;8.710;2024-02-21T12:30:29;14.90;74.30
10123;DHT22;5101;49.038;8.710;2024-02-21T12:32:56;14.80;74.40
10123;DHT22;5101;49.038;8.710;2024-02-21T12:35:23;14.90;74.50
10123;DHT22;5101;49.038;8.710;2024-02-21T12:37:49;14.90;74.20
10123;DHT22;5101;49.038;8.710;2024-02-21T12:40:14;14.80;74.10
10123;DHT22;5101;49.038;8.710;2024-02-21T12:42:40;14.90;74.20
10123;DHT22;5101;49.038;8.710;2024-02-21T12:45:06;14.80;74.60
10123;DHT22;5101;49.038;8.710;2024-02-21T12:47:31;14.70;74.30
10123;DHT22;5101;49.038;8.710;2024-02-21T12:49:57;14.70;74.60
10123;DHT22;5101;49.038;8.710;2024-02-21T12:52:22;14.70;74.60
10123;DHT22;5101;49.038;8.710;2024-02-21T12:54:48;14.60;74.70
10123;DHT22;5101;49.038;8.710;2024-02-21T12:57:14;14.70;75.00
10123;DHT22;5101;49.038;8.710;2024-02-21T12:59:39;14.70;74.80
10123;DHT22;5101;49.038;8.710;2024-02-21T13:02:05;14.80;74.50
10123;DHT22;5101;49.038;8.710;2024-02-21T13:04:31;14.80;74.00
10123;DHT22;5101;49.038;8.710;2024-02-21T13:06:57;14.80;73.20
10123;DHT22;5101;49.038;8.710;2024-02-21T13:09:22;14.80;72.80
10123;DHT22;5101;49.038;8.710;2024-02-21T13:11:48;14.90;72.50
10123;DHT22;5101;49.038;8.710;2024-02-21T13:14:13;14.90;72.50
10123;DHT22;5101;49.038;8.710;2024-02-21T13:16:39;14.80;73.10
10123;DHT22;5101;49.038;8.710;2024-02-21T13:19:08;14.80;72.70
10123;DHT22;5101;49.038;8.710;2024-02-21T13:21:34;14.80;72.90
10123;DHT22;5101;49.038;8.710;2024-02-21T13:24:00;14.80;72.70
10123;DHT22;5101;49.038;8.710;2024-02-21T13:26:26;14.80;72.50
10123;DHT22;5101;49.038;8.710;2024-02-21T13:28:52;14.80;73.10
10123;DHT22;5101;49.038;8.710;2024-02-21T13:31:17;14.80;72.90
10123;DHT22;5101;49.038;8.710;2024-02-21T13:33:43;14.80;72.80
10123;DHT22;5101;49.038;8.710;2024-02-21T13:36:10;14.70;72.80
10123;DHT22;5101;49.038;8.710;2024-02-21T13:38:35;14.70;73.10
10123;DHT22;5101;49.038;8.710;2024-02-21T13:41:01;14.70;73.20
10123;DHT22;5101;49.038;8.710;2024-02-21T13:43:27;14.70;73.40
10123;DHT22;5101;49.038;8.710;2024-02-21T13:46:01;14.70;73.50
10123;DHT22;5101;49.038;8.710;2024-02-21T13:48:35;14.70;73.30
10123;DHT22;5101;49.038;8.710;2024-02-21T13:51:00;14.70;73.80
10123;DHT22;5101;49.038;8.710;2024-02-21T13:53:27;14.60;73.30
10123;DHT22;5101;49.038;8.710;2024-02-21T13:55:53;14.60;73.70
10123;DHT22;5101;49.038;8.710;2024-02-21T13:58:18;14.60;74.00
10123;DHT22;5101;49.038;8.710;2024-02-21T14:00:44;14.60;74.10
10123;DHT22;5101;49.038;8.710;2024-02-21T14:03:10;14.60;74.00
10123;DHT22;5101;49.038;8.710;2024-02-21T14:05:36;14.50;73.70
10123;DHT22;5101;49.038;8.710;2024-02-21T14:08:02;14.50;73.60
10123;DHT22;5101;49.038;8.710;2024-02-21T14:10:27;14.40;73.40
10123;DHT22;5101;49.038;8.710;2024-02-21T14:12:53;14.40;73.70
10123;DHT22;5101;49.038;8.710;2024-02-21T14:15:20;14.30;73.70
10123;DHT22;5101;49.038;8.710;2024-02-21T14:17:45;14.20;73.70
10123;DHT22;5101;49.038;8.710;2024-02-21T14:20:11;14.30;74.00
10123;DHT22;5101;49.038;8.710;2024-02-21T14:22:39;14.30;74.60
10123;DHT22;5101;49.038;8.710;2024-02-21T14:25:05;14.30;74.40
10123;DHT22;5101;49.038;8.710;2024-02-21T14:27:31;14.30;73.90
10123;DHT22;5101;49.038;8.710;2024-02-21T14:29:57;14.30;73.70
10123;DHT22;5101;49.038;8.710;2024-02-21T14:32:22;14.30;74.00
10123;DHT22;5101;49.038;8.710;2024-02-21T14:34:48;14.40;74.60
10123;DHT22;5101;49.038;8.710;2024-02-21T14:37:14;14.40;74.70
10123;DHT22;5101;49.038;8.710;2024-02-21T14:39:40;14.40;74.90
10123;DHT22;5101;49.038;8.710;2024-02-21T14:42:06;14.40;74.70
10123;DHT22;5101;49.038;8.710;2024-02-21T14:44:32;14.50;74.60
10123;DHT22;5101;49.038;8.710;2024-02-21T14:46:58;14.50;74.40
10123;DHT22;5101;49.038;8.710;2024-02-21T14:49:23;14.50;74.20
10123;DHT22;5101;49.038;8.710;2024-02-21T14:51:50;14.40;74.10
10123;DHT22;5101;49.038;8.710;2024-02-21T14:54:16;14.40;73.80
10123;DHT22;5101;49.038;8.710;2024-02-21T14:56:41;14.30;73.90
10123;DHT22;5101;49.038;8.710;2024-02-21T14:59:07;14.30;74.10
10123;DHT22;5101;49.038;8.710;2024-02-21T15:01:36;14.30;74.10
10123;DHT22;5101;49.038;8.710;2024-02-21T15:04:05;14.20;74.10
10123;DHT22;5101;49.038;8.710;2024-02-21T15:06:31;14.30;74.60
10123;DHT22;5101;49.038;8.710;2024-02-21T15:08:57;14.20;74.60
10123;DHT22;5101;49.038;8.710;2024-02-21T15:11:23;14.20;74.40
10123;DHT22;5101;49.038;8.710;2024-02-21T15:13:48;14.20;74.40
10123;DHT22;5101;49.038;8.710;2024-02-21T15:16:14;14.30;74.70
10123;DHT22;5101;49.038;8.710;2024-02-21T15:18:39;14.10;74.50
10123;DHT22;5101;49.038;8.710;2024-02-21T15:21:05;13.90;74.80
10123;DHT22;5101;49.038;8.710;2024-02-21T15:23:32;13.80;75.30
10123;DHT22;5101;49.038;8.710;2024-02-21T15:25:58;13.90;75.60
10123;DHT22;5101;49.038;8.710;2024-02-21T15:28:24;14.00;75.90
10123;DHT22;5101;49.038;8.710;2024-02-21T15:30:50;14.00;75.80
10123;DHT22;5101;49.038;8.710;2024-02-21T15:33:16;13.90;75.50
10123;DHT22;5101;49.038;8.710;2024-02-21T15:35:41;13.90;75.70
10123;DHT22;5101;49.038;8.710;2024-02-21T15:38:07;13.90;76.50
10123;DHT22;5101;49.038;8.710;2024-02-21T15:40:32;13.90;77.30
10123;DHT22;5101;49.038;8.710;2024-02-21T15:43:01;13.90;77.50
10123;DHT22;5101;49.038;8.710;2024-02-21T15:45:26;13.90;77.80
10123;DHT22;5101;49.038;8.710;2024-02-21T15:47:52;13.80;78.20
10123;DHT22;5101;49.038;8.710;2024-02-21T15:50:19;13.80;79.50
10123;DHT22;5101;49.038;8.710;2024-02-21T15:52:45;13.80;79.90
10123;DHT22;5101;49.038;8.710;2024-02-21T15:55:10;13.90;80.50